sensor_id;sensor_type;location;lat;lon;timestamp;pressure;altitude;pressure_sealevel;temperature;humidity
9415;BME280;4746;35.664;139.738;2023-07-16T00:02:24;99778.81;;;36.46;43.36
9415;BME280;4746;35.664;139.738;2023-07-16T00:04:51;99777.13;;;36.53;43.65
9415;BME280;4746;35.664;139.738;2023-07-16T00:07:19;99778.84;;;36.62;43.81
9415;BME280;4746;35.664;139.738;2023-07-16T00:09:46;99782.03;;;36.66;43.15
9415;BME280;4746;35.664;139.738;2023-07-16T00:12:14;99781.50;;;36.70;43.12
9415;BME280;4746;35.664;139.738;2023-07-16T00:14:42;99780.69;;;36.70;42.84
9415;BME280;4746;35.664;139.738;2023-07-16T00:17:09;99779.34;;;36.66;43.00
9415;BME280;4746;35.664;139.738;2023-07-16T00:19:38;99776.34;;;36.69;42.66
9415;BME280;4746;35.664;139.738;2023-07-16T00:22:10;99779.50;;;36.72;42.80
9415;BME280;4746;35.664;139.738;2023-07-16T00:24:42;99775.69;;;36.82;42.64
9415;BME280;4746;35.664;139.738;2023-07-16T00:27:10;99772.06;;;36.83;42.54
9415;BME280;4746;35.664;139.738;2023-07-16T00:29:38;99768.88;;;36.88;42.22
9415;BME280;4746;35.664;139.738;2023-07-16T00:32:08;99767.72;;;36.98;42.23
9415;BME280;4746;35.664;139.738;2023-07-16T00:34:57;99772.56;;;37.03;42.06
9415;BME280;4746;35.664;139.738;2023-07-16T00:37:28;99770.75;;;36.95;41.74
9415;BME280;4746;35.664;139.738;2023-07-16T00:40:02;99766.22;;;36.96;41.88
9415;BME280;4746;35.664;139.738;2023-07-16T00:42:30;99764.03;;;36.91;41.42
9415;BME280;4746;35.664;139.738;2023-07-16T00:45:01;99771.25;;;36.99;41.93
9415;BME280;4746;35.664;139.738;2023-07-16T00:47:29;99767.53;;;37.00;41.49
9415;BME280;4746;35.664;139.738;2023-07-16T00:50:00;99768.56;;;37.07;41.54
9415;BME280;4746;35.664;139.738;2023-07-16T00:52:28;99768.25;;;37.10;41.28
9415;BME280;4746;35.664;139.738;2023-07-16T00:54:59;99765.53;;;37.18;41.70
9415;BME280;4746;35.664;139.738;2023-07-16T00:58:37;99759.56;;;37.40;41.91
9415;BME280;4746;35.664;139.738;2023-07-16T01:01:00;99752.84;;;37.44;41.96
9415;BME280;4746;35.664;139.738;2023-07-16T01:03:58;99759.03;;;37.52;42.18
9415;BME280;4746;35.664;139.738;2023-07-16T01:10:17;99750.50;;;37.56;42.00
9415;BME280;4746;35.664;139.738;2023-07-16T01:13:01;99754.34;;;37.54;42.28
9415;BME280;4746;35.664;139.738;2023-07-16T01:15:52;99765.50;;;37.65;42.15
9415;BME280;4746;35.664;139.738;2023-07-16T01:18:25;99763.34;;;37.61;42.20
9415;BME280;4746;35.664;139.738;2023-07-16T01:21:22;99766.34;;;37.82;42.00
9415;BME280;4746;35.664;139.738;2023-07-16T01:30:01;99758.81;;;37.85;42.48
9415;BME280;4746;35.664;139.738;2023-07-16T01:32:32;99759.47;;;37.71;42.59
9415;BME280;4746;35.664;139.738;2023-07-16T01:35:02;99758.16;;;37.67;43.09
9415;BME280;4746;35.664;139.738;2023-07-16T01:37:29;99758.34;;;37.58;43.17
9415;BME280;4746;35.664;139.738;2023-07-16T01:39:57;99753.69;;;37.52;43.66
9415;BME280;4746;35.664;139.738;2023-07-16T01:42:26;99755.19;;;37.54;43.40
9415;BME280;4746;35.664;139.738;2023-07-16T01:44:54;99763.56;;;37.52;43.94
9415;BME280;4746;35.664;139.738;2023-07-16T01:50:34;99752.84;;;37.52;43.78
9415;BME280;4746;35.664;139.738;2023-07-16T01:53:02;99760.69;;;37.53;43.41
9415;BME280;4746;35.664;139.738;2023-07-16T01:55:30;99761.19;;;37.56;43.29
9415;BME280;4746;35.664;139.738;2023-07-16T01:57:57;99763.34;;;37.61;43.43
9415;BME280;4746;35.664;139.738;2023-07-16T02:00:25;99749.47;;;37.65;42.85
9415;BME280;4746;35.664;139.738;2023-07-16T02:02:53;99748.47;;;37.66;42.85
9415;BME280;4746;35.664;139.738;2023-07-16T02:05:20;99741.44;;;37.73;42.92
9415;BME280;4746;35.664;139.738;2023-07-16T02:07:51;99742.25;;;37.82;42.44
9415;BME280;4746;35.664;139.738;2023-07-16T02:10:19;99750.41;;;37.88;42.68
9415;BME280;4746;35.664;139.738;2023-07-16T02:12:46;99739.38;;;37.91;42.25
9415;BME280;4746;35.664;139.738;2023-07-16T02:15:14;99754.41;;;38.00;42.08
9415;BME280;4746;35.664;139.738;2023-07-16T02:17:51;99750.50;;;38.11;41.75
9415;BME280;4746;35.664;139.738;2023-07-16T02:20:24;99746.47;;;38.15;42.10
9415;BME280;4746;35.664;139.738;2023-07-16T02:22:51;99744.16;;;38.12;42.27
9415;BME280;4746;35.664;139.738;2023-07-16T02:25:19;99747.31;;;38.15;42.39
9415;BME280;4746;35.664;139.738;2023-07-16T02:27:47;99750.50;;;38.19;42.50
9415;BME280;4746;35.664;139.738;2023-07-16T02:30:35;99751.44;;;38.33;42.04
9415;BME280;4746;35.664;139.738;2023-07-16T02:33:03;99752.94;;;38.28;41.79
9415;BME280;4746;35.664;139.738;2023-07-16T02:35:58;99745.38;;;38.39;41.73
9415;BME280;4746;35.664;139.738;2023-07-16T02:38:26;99746.06;;;38.33;41.39
9415;BME280;4746;35.664;139.738;2023-07-16T02:40:53;99744.19;;;38.42;42.01
9415;BME280;4746;35.664;139.738;2023-07-16T02:43:21;99741.09;;;38.53;41.74
9415;BME280;4746;35.664;139.738;2023-07-16T02:45:49;99742.91;;;38.60;41.14
9415;BME280;4746;35.664;139.738;2023-07-16T02:48:16;99739.38;;;38.68;41.16
9415;BME280;4746;35.664;139.738;2023-07-16T02:50:44;99737.09;;;38.79;41.26
9415;BME280;4746;35.664;139.738;2023-07-16T02:53:12;99737.84;;;38.88;41.09
9415;BME280;4746;35.664;139.738;2023-07-16T02:55:39;99722.06;;;38.93;41.05
9415;BME280;4746;35.664;139.738;2023-07-16T02:58:07;99731.06;;;38.99;41.11
9415;BME280;4746;35.664;139.738;2023-07-16T03:01:45;99730.41;;;39.20;40.08
9415;BME280;4746;35.664;139.738;2023-07-16T03:04:25;99729.78;;;39.18;40.39
9415;BME280;4746;35.664;139.738;2023-07-16T03:06:53;99728.13;;;39.31;39.47
9415;BME280;4746;35.664;139.738;2023-07-16T03:09:20;99736.06;;;39.39;39.57
9415;BME280;4746;35.664;139.738;2023-07-16T03:11:48;99727.00;;;39.40;39.54
9415;BME280;4746;35.664;139.738;2023-07-16T03:14:16;99725.31;;;39.47;39.42
9415;BME280;4746;35.664;139.738;2023-07-16T03:16:43;99731.69;;;39.46;39.34
9415;BME280;4746;35.664;139.738;2023-07-16T03:19:11;99722.25;;;39.50;39.16
9415;BME280;4746;35.664;139.738;2023-07-16T03:21:38;99725.31;;;39.47;39.68
9415;BME280;4746;35.664;139.738;2023-07-16T03:24:06;99720.88;;;39.54;39.64
9415;BME280;4746;35.664;139.738;2023-07-16T03:26:48;99740.59;;;39.75;39.68
9415;BME280;4746;35.664;139.738;2023-07-16T03:29:16;99733.00;;;39.79;39.16
9415;BME280;4746;35.664;139.738;2023-07-16T03:31:44;99730.34;;;39.93;39.09
9415;BME280;4746;35.664;139.738;2023-07-16T03:34:11;99728.56;;;40.00;38.97
9415;BME280;4746;35.664;139.738;2023-07-16T03:36:39;99720.59;;;40.07;38.52
9415;BME280;4746;35.664;139.738;2023-07-16T03:39:07;99723.19;;;40.15;38.58
9415;BME280;4746;35.664;139.738;2023-07-16T03:41:34;99711.09;;;40.25;38.19
9415;BME280;4746;35.664;139.738;2023-07-16T03:44:02;99720.91;;;40.33;37.88
9415;BME280;4746;35.664;139.738;2023-07-16T03:46:30;99705.09;;;40.38;37.97
9415;BME280;4746;35.664;139.738;2023-07-16T03:48:58;99706.63;;;40.47;38.22
9415;BME280;4746;35.664;139.738;2023-07-16T03:51:26;99710.56;;;40.50;38.10
9415;BME280;4746;35.664;139.738;2023-07-16T03:53:53;99712.50;;;40.56;37.76
9415;BME280;4746;35.664;139.738;2023-07-16T03:56:21;99711.00;;;40.68;37.25
9415;BME280;4746;35.664;139.738;2023-07-16T03:58:48;99716.50;;;40.81;37.51
9415;BME280;4746;35.664;139.738;2023-07-16T04:01:16;99713.63;;;40.83;37.20
9415;BME280;4746;35.664;139.738;2023-07-16T04:03:43;99716.59;;;40.88;37.20
9415;BME280;4746;35.664;139.738;2023-07-16T04:06:12;99714.78;;;40.95;36.97
9415;BME280;4746;35.664;139.738;2023-07-16T04:08:41;99713.69;;;41.10;36.82
9415;BME280;4746;35.664;139.738;2023-07-16T04:11:09;99715.22;;;41.19;36.74
9415;BME280;4746;35.664;139.738;2023-07-16T04:13:37;99706.63;;;41.30;36.81
9415;BME280;4746;35.664;139.738;2023-07-16T04:16:04;99709.53;;;41.35;36.59
9415;BME280;4746;35.664;139.738;2023-07-16T04:18:32;99700.56;;;41.49;35.99
9415;BME280;4746;35.664;139.738;2023-07-16T04:21:02;99703.16;;;41.63;36.09
9415;BME280;4746;35.664;139.738;2023-07-16T04:23:29;99701.91;;;41.66;35.43
9415;BME280;4746;35.664;139.738;2023-07-16T04:25:57;99709.88;;;41.80;35.43
9415;BME280;4746;35.664;139.738;2023-07-16T04:28:24;99704.59;;;41.99;35.08
9415;BME280;4746;35.664;139.738;2023-07-16T04:30:55;99705.25;;;42.14;35.09
9415;BME280;4746;35.664;139.738;2023-07-16T04:33:22;99703.84;;;42.18;34.92
9415;BME280;4746;35.664;139.738;2023-07-16T04:35:50;99700.59;;;42.29;34.66
9415;BME280;4746;35.664;139.738;2023-07-16T04:38:18;99701.84;;;42.33;34.77
9415;BME280;4746;35.664;139.738;2023-07-16T04:40:45;99708.50;;;42.44;34.06
9415;BME280;4746;35.664;139.738;2023-07-16T04:43:13;99702.72;;;42.53;34.03
9415;BME280;4746;35.664;139.738;2023-07-16T04:45:40;99713.56;;;42.66;33.39
9415;BME280;4746;35.664;139.738;2023-07-16T04:48:08;99703.19;;;42.76;33.93
9415;BME280;4746;35.664;139.738;2023-07-16T04:50:35;99697.41;;;42.92;33.43
9415;BME280;4746;35.664;139.738;2023-07-16T04:53:03;99699.47;;;43.03;33.19
9415;BME280;4746;35.664;139.738;2023-07-16T04:55:36;99702.41;;;43.27;32.77
9415;BME280;4746;35.664;139.738;2023-07-16T04:58:04;99694.50;;;43.26;32.66
9415;BME280;4746;35.664;139.738;2023-07-16T05:00:34;99688.25;;;43.38;32.30
9415;BME280;4746;35.664;139.738;2023-07-16T05:03:02;99690.13;;;43.38;32.52
9415;BME280;4746;35.664;139.738;2023-07-16T05:05:30;99687.41;;;43.38;32.61
9415;BME280;4746;35.664;139.738;2023-07-16T05:07:57;99685.13;;;43.41;32.69
9415;BME280;4746;35.664;139.738;2023-07-16T05:10:25;99680.16;;;43.51;32.63
9415;BME280;4746;35.664;139.738;2023-07-16T05:12:52;99674.72;;;43.64;32.32
9415;BME280;4746;35.664;139.738;2023-07-16T05:15:20;99673.63;;;43.84;32.38
9415;BME280;4746;35.664;139.738;2023-07-16T05:17:47;99673.13;;;44.07;31.92
9415;BME280;4746;35.664;139.738;2023-07-16T05:20:15;99690.38;;;44.12;31.76
9415;BME280;4746;35.664;139.738;2023-07-16T05:22:43;99684.72;;;44.20;31.71
9415;BME280;4746;35.664;139.738;2023-07-16T05:25:14;99680.47;;;44.37;31.29
9415;BME280;4746;35.664;139.738;2023-07-16T05:27:42;99687.31;;;44.39;31.50
9415;BME280;4746;35.664;139.738;2023-07-16T05:30:10;99692.66;;;44.59;31.52
9415;BME280;4746;35.664;139.738;2023-07-16T05:32:38;99684.00;;;44.75;31.00
9415;BME280;4746;35.664;139.738;2023-07-16T05:35:06;99676.78;;;44.93;31.36
9415;BME280;4746;35.664;139.738;2023-07-16T05:37:33;99676.06;;;45.04;30.43
9415;BME280;4746;35.664;139.738;2023-07-16T05:40:01;99673.34;;;45.04;30.55
9415;BME280;4746;35.664;139.738;2023-07-16T05:42:30;99677.88;;;45.10;30.51
9415;BME280;4746;35.664;139.738;2023-07-16T05:44:57;99678.72;;;45.10;30.12
9415;BME280;4746;35.664;139.738;2023-07-16T05:47:25;99680.81;;;45.08;30.21
9415;BME280;4746;35.664;139.738;2023-07-16T05:49:52;99671.38;;;45.17;30.35
9415;BME280;4746;35.664;139.738;2023-07-16T05:52:21;99668.81;;;45.22;30.06
9415;BME280;4746;35.664;139.738;2023-07-16T05:54:48;99659.38;;;45.49;30.00
9415;BME280;4746;35.664;139.738;2023-07-16T05:57:16;99663.63;;;45.99;28.90
9415;BME280;4746;35.664;139.738;2023-07-16T05:59:43;99662.19;;;46.43;28.52
9415;BME280;4746;35.664;139.738;2023-07-16T06:02:13;99664.31;;;46.94;27.75
9415;BME280;4746;35.664;139.738;2023-07-16T06:04:42;99657.38;;;47.20;27.43
9415;BME280;4746;35.664;139.738;2023-07-16T06:07:10;99658.44;;;47.54;27.24
9415;BME280;4746;35.664;139.738;2023-07-16T06:09:37;99658.25;;;47.94;26.86
9415;BME280;4746;35.664;139.738;2023-07-16T06:12:05;99665.06;;;48.36;25.94
9415;BME280;4746;35.664;139.738;2023-07-16T06:14:41;99657.47;;;48.66;25.84
9415;BME280;4746;35.664;139.738;2023-07-16T06:17:09;99659.00;;;49.06;24.99
9415;BME280;4746;35.664;139.738;2023-07-16T06:19:36;99648.22;;;49.33;25.05
9415;BME280;4746;35.664;139.738;2023-07-16T06:22:04;99651.69;;;49.66;24.51
9415;BME280;4746;35.664;139.738;2023-07-16T06:24:32;99660.34;;;49.79;24.26
9415;BME280;4746;35.664;139.738;2023-07-16T06:27:00;99660.66;;;49.61;24.81
9415;BME280;4746;35.664;139.738;2023-07-16T06:29:28;99649.38;;;49.37;24.74
9415;BME280;4746;35.664;139.738;2023-07-16T06:31:57;99646.94;;;49.56;25.06
9415;BME280;4746;35.664;139.738;2023-07-16T06:34:25;99656.97;;;50.68;23.67
9415;BME280;4746;35.664;139.738;2023-07-16T06:36:53;99647.91;;;52.82;21.31
9415;BME280;4746;35.664;139.738;2023-07-16T06:39:21;99649.56;;;54.77;19.85
9415;BME280;4746;35.664;139.738;2023-07-16T06:41:48;99640.97;;;56.10;18.25
9415;BME280;4746;35.664;139.738;2023-07-16T06:44:16;99644.66;;;57.19;17.40
9415;BME280;4746;35.664;139.738;2023-07-16T06:46:43;99637.63;;;57.94;16.91
9415;BME280;4746;35.664;139.738;2023-07-16T06:49:11;99642.56;;;58.54;16.53
9415;BME280;4746;35.664;139.738;2023-07-16T06:51:38;99636.41;;;59.09;15.59
9415;BME280;4746;35.664;139.738;2023-07-16T06:54:07;99632.78;;;59.69;15.86
9415;BME280;4746;35.664;139.738;2023-07-16T06:56:34;99624.72;;;60.23;15.16
9415;BME280;4746;35.664;139.738;2023-07-16T06:59:02;99625.81;;;60.73;14.38
9415;BME280;4746;35.664;139.738;2023-07-16T07:01:29;99627.53;;;61.03;14.68
9415;BME280;4746;35.664;139.738;2023-07-16T07:03:57;99616.38;;;61.20;13.83
9415;BME280;4746;35.664;139.738;2023-07-16T07:06:25;99613.47;;;61.53;14.34
9415;BME280;4746;35.664;139.738;2023-07-16T07:08:52;99617.88;;;61.83;13.82
9415;BME280;4746;35.664;139.738;2023-07-16T07:11:20;99609.78;;;62.31;13.50
9415;BME280;4746;35.664;139.738;2023-07-16T07:13:48;99604.13;;;62.72;12.88
9415;BME280;4746;35.664;139.738;2023-07-16T07:16:17;99612.41;;;62.80;13.09
9415;BME280;4746;35.664;139.738;2023-07-16T07:18:44;99601.66;;;62.91;12.92
9415;BME280;4746;35.664;139.738;2023-07-16T07:21:12;99602.59;;;62.95;12.93
9415;BME280;4746;35.664;139.738;2023-07-16T07:23:39;99591.47;;;62.95;12.56
9415;BME280;4746;35.664;139.738;2023-07-16T07:26:07;99594.25;;;62.95;12.85
9415;BME280;4746;35.664;139.738;2023-07-16T07:28:35;99587.78;;;63.02;13.06
9415;BME280;4746;35.664;139.738;2023-07-16T07:31:02;99580.44;;;62.98;12.66
9415;BME280;4746;35.664;139.738;2023-07-16T07:33:30;99581.94;;;62.84;12.83
9415;BME280;4746;35.664;139.738;2023-07-16T07:35:59;99576.59;;;62.79;12.91
9415;BME280;4746;35.664;139.738;2023-07-16T07:38:26;99581.00;;;62.92;12.80
9415;BME280;4746;35.664;139.738;2023-07-16T07:40:55;99577.31;;;62.99;12.38
9415;BME280;4746;35.664;139.738;2023-07-16T07:43:22;99595.09;;;63.07;12.29
9415;BME280;4746;35.664;139.738;2023-07-16T07:45:50;99594.47;;;63.01;12.62
9415;BME280;4746;35.664;139.738;2023-07-16T07:48:17;99591.47;;;63.06;12.58
9415;BME280;4746;35.664;139.738;2023-07-16T07:50:47;99596.84;;;63.35;12.01
9415;BME280;4746;35.664;139.738;2023-07-16T07:53:15;99597.28;;;63.49;12.02
9415;BME280;4746;35.664;139.738;2023-07-16T07:55:45;99596.59;;;63.52;12.29
9415;BME280;4746;35.664;139.738;2023-07-16T07:58:13;99594.78;;;62.76;12.31
9415;BME280;4746;35.664;139.738;2023-07-16T08:00:42;99586.78;;;61.32;13.49
9415;BME280;4746;35.664;139.738;2023-07-16T08:03:10;99583.97;;;60.15;14.07
9415;BME280;4746;35.664;139.738;2023-07-16T08:05:38;99584.53;;;59.62;14.64
9415;BME280;4746;35.664;139.738;2023-07-16T08:08:05;99579.16;;;59.74;14.55
9415;BME280;4746;35.664;139.738;2023-07-16T08:10:33;99578.19;;;59.14;14.90
9415;BME280;4746;35.664;139.738;2023-07-16T08:13:01;99576.66;;;58.26;15.49
9415;BME280;4746;35.664;139.738;2023-07-16T08:15:30;99583.56;;;58.58;15.64
9415;BME280;4746;35.664;139.738;2023-07-16T08:17:57;99584.56;;;58.84;15.57
9415;BME280;4746;35.664;139.738;2023-07-16T08:20:27;99590.81;;;58.98;15.20
9415;BME280;4746;35.664;139.738;2023-07-16T08:22:55;99582.03;;;58.96;15.14
9415;BME280;4746;35.664;139.738;2023-07-16T08:25:22;99587.72;;;59.30;14.90
9415;BME280;4746;35.664;139.738;2023-07-16T08:27:50;99584.91;;;58.91;15.07
9415;BME280;4746;35.664;139.738;2023-07-16T08:30:17;99584.69;;;58.57;15.68
9415;BME280;4746;35.664;139.738;2023-07-16T08:32:45;99582.16;;;58.39;15.76
9415;BME280;4746;35.664;139.738;2023-07-16T08:35:12;99588.22;;;57.92;15.68
9415;BME280;4746;35.664;139.738;2023-07-16T08:37:46;99589.91;;;56.17;17.32
9415;BME280;4746;35.664;139.738;2023-07-16T08:40:14;99583.47;;;54.25;18.75
9415;BME280;4746;35.664;139.738;2023-07-16T08:42:45;99585.16;;;52.60;20.30
9415;BME280;4746;35.664;139.738;2023-07-16T08:45:16;99585.16;;;51.08;21.65
9415;BME280;4746;35.664;139.738;2023-07-16T08:47:46;99590.50;;;49.78;23.56
9415;BME280;4746;35.664;139.738;2023-07-16T08:50:13;99594.34;;;48.69;24.46
9415;BME280;4746;35.664;139.738;2023-07-16T08:52:41;99605.69;;;47.66;25.59
9415;BME280;4746;35.664;139.738;2023-07-16T08:55:12;99616.88;;;47.30;26.32
9415;BME280;4746;35.664;139.738;2023-07-16T08:57:41;99615.34;;;48.24;25.89
9415;BME280;4746;35.664;139.738;2023-07-16T09:00:10;99613.72;;;49.22;24.61
9415;BME280;4746;35.664;139.738;2023-07-16T09:02:38;99614.53;;;49.81;23.74
9415;BME280;4746;35.664;139.738;2023-07-16T09:05:08;99619.13;;;49.54;23.98
9415;BME280;4746;35.664;139.738;2023-07-16T09:07:36;99620.94;;;48.62;24.74
9415;BME280;4746;35.664;139.738;2023-07-16T09:10:05;99622.47;;;47.75;26.27
9415;BME280;4746;35.664;139.738;2023-07-16T09:12:32;99624.78;;;46.86;26.92
9415;BME280;4746;35.664;139.738;2023-07-16T09:15:00;99630.91;;;46.12;27.67
9415;BME280;4746;35.664;139.738;2023-07-16T09:17:28;99628.81;;;45.42;28.66
9415;BME280;4746;35.664;139.738;2023-07-16T09:19:56;99631.94;;;44.79;29.69
9415;BME280;4746;35.664;139.738;2023-07-16T09:22:24;99637.28;;;44.24;30.81
9415;BME280;4746;35.664;139.738;2023-07-16T09:24:51;99653.09;;;43.70;31.58
9415;BME280;4746;35.664;139.738;2023-07-16T09:27:18;99656.91;;;43.31;32.29
9415;BME280;4746;35.664;139.738;2023-07-16T09:29:46;99655.69;;;42.94;32.01
9415;BME280;4746;35.664;139.738;2023-07-16T09:32:14;99654.19;;;42.53;33.24
9415;BME280;4746;35.664;139.738;2023-07-16T09:34:41;99666.13;;;42.18;34.05
9415;BME280;4746;35.664;139.738;2023-07-16T09:37:09;99672.97;;;41.81;34.39
9415;BME280;4746;35.664;139.738;2023-07-16T09:39:39;99672.75;;;41.42;34.77
9415;BME280;4746;35.664;139.738;2023-07-16T09:42:07;99676.69;;;41.12;35.36
9415;BME280;4746;35.664;139.738;2023-07-16T09:44:35;99683.88;;;40.84;35.80
9415;BME280;4746;35.664;139.738;2023-07-16T09:47:03;99678.63;;;40.55;36.82
9415;BME280;4746;35.664;139.738;2023-07-16T09:49:31;99681.66;;;40.32;37.47
9415;BME280;4746;35.664;139.738;2023-07-16T09:52:01;99681.84;;;40.16;37.41
9415;BME280;4746;35.664;139.738;2023-07-16T09:54:32;99686.97;;;40.11;37.54
9415;BME280;4746;35.664;139.738;2023-07-16T09:57:05;99682.00;;;39.93;37.88
9415;BME280;4746;35.664;139.738;2023-07-16T09:59:34;99685.59;;;39.86;38.25
9415;BME280;4746;35.664;139.738;2023-07-16T10:02:02;99698.19;;;39.71;38.59
9415;BME280;4746;35.664;139.738;2023-07-16T10:04:39;99699.22;;;39.56;39.11
9415;BME280;4746;35.664;139.738;2023-07-16T10:07:21;99698.13;;;39.50;38.93
9415;BME280;4746;35.664;139.738;2023-07-16T10:09:57;99697.00;;;39.45;39.42
9415;BME280;4746;35.664;139.738;2023-07-16T10:12:26;99704.25;;;39.36;39.25
9415;BME280;4746;35.664;139.738;2023-07-16T10:14:56;99711.38;;;39.29;39.13
9415;BME280;4746;35.664;139.738;2023-07-16T10:17:26;99709.06;;;39.26;39.33
9415;BME280;4746;35.664;139.738;2023-07-16T10:20:09;99712.63;;;39.19;40.10
9415;BME280;4746;35.664;139.738;2023-07-16T10:22:41;99705.03;;;39.08;40.40
9415;BME280;4746;35.664;139.738;2023-07-16T10:27:48;99699.69;;;38.86;40.81
9415;BME280;4746;35.664;139.738;2023-07-16T10:30:17;99702.63;;;38.76;40.44
9415;BME280;4746;35.664;139.738;2023-07-16T10:32:46;99712.72;;;38.66;41.01
9415;BME280;4746;35.664;139.738;2023-07-16T10:35:14;99708.25;;;38.59;41.23
9415;BME280;4746;35.664;139.738;2023-07-16T10:37:41;99718.34;;;38.49;41.51
9415;BME280;4746;35.664;139.738;2023-07-16T10:40:13;99722.44;;;38.37;41.36
9415;BME280;4746;35.664;139.738;2023-07-16T10:42:43;99723.38;;;38.22;42.06
9415;BME280;4746;35.664;139.738;2023-07-16T10:45:12;99724.25;;;38.06;42.33
9415;BME280;4746;35.664;139.738;2023-07-16T10:47:54;99730.31;;;38.00;42.07
9415;BME280;4746;35.664;139.738;2023-07-16T10:50:22;99736.72;;;37.83;42.69
9415;BME280;4746;35.664;139.738;2023-07-16T10:52:57;99743.44;;;37.79;42.65
9415;BME280;4746;35.664;139.738;2023-07-16T10:55:27;99735.41;;;37.63;43.08
9415;BME280;4746;35.664;139.738;2023-07-16T10:57:56;99750.00;;;37.53;42.63
9415;BME280;4746;35.664;139.738;2023-07-16T11:00:24;99755.19;;;37.47;43.31
9415;BME280;4746;35.664;139.738;2023-07-16T11:02:52;99762.88;;;37.42;43.57
9415;BME280;4746;35.664;139.738;2023-07-16T11:05:20;99767.22;;;37.35;43.43
9415;BME280;4746;35.664;139.738;2023-07-16T11:07:49;99774.94;;;37.30;43.93
9415;BME280;4746;35.664;139.738;2023-07-16T11:10:17;99786.13;;;37.25;43.98
9415;BME280;4746;35.664;139.738;2023-07-16T11:12:51;99790.63;;;37.25;43.78
9415;BME280;4746;35.664;139.738;2023-07-16T11:15:32;99798.81;;;37.23;44.01
9415;BME280;4746;35.664;139.738;2023-07-16T11:18:02;99800.97;;;37.12;44.48
9415;BME280;4746;35.664;139.738;2023-07-16T11:20:30;99805.97;;;37.07;44.16
9415;BME280;4746;35.664;139.738;2023-07-16T11:23:01;99810.81;;;37.03;44.84
9415;BME280;4746;35.664;139.738;2023-07-16T11:25:29;99818.69;;;36.97;44.70
9415;BME280;4746;35.664;139.738;2023-07-16T11:27:57;99823.69;;;36.92;44.74
9415;BME280;4746;35.664;139.738;2023-07-16T11:30:25;99829.16;;;36.90;44.79
9415;BME280;4746;35.664;139.738;2023-07-16T11:32:54;99834.34;;;36.84;45.13
9415;BME280;4746;35.664;139.738;2023-07-16T11:35:22;99844.22;;;36.83;45.50
9415;BME280;4746;35.664;139.738;2023-07-16T11:37:49;99845.34;;;36.81;45.93
9415;BME280;4746;35.664;139.738;2023-07-16T11:40:20;99852.84;;;36.78;45.76
9415;BME280;4746;35.664;139.738;2023-07-16T11:42:49;99857.34;;;36.69;45.94
9415;BME280;4746;35.664;139.738;2023-07-16T11:45:21;99859.63;;;36.64;45.72
9415;BME280;4746;35.664;139.738;2023-07-16T11:47:50;99862.28;;;36.56;46.48
9415;BME280;4746;35.664;139.738;2023-07-16T11:50:17;99862.75;;;36.52;46.56
9415;BME280;4746;35.664;139.738;2023-07-16T11:52:54;99862.59;;;36.45;46.61
9415;BME280;4746;35.664;139.738;2023-07-16T11:55:23;99875.59;;;36.40;46.72
9415;BME280;4746;35.664;139.738;2023-07-16T11:57:51;99869.19;;;36.33;46.75
9415;BME280;4746;35.664;139.738;2023-07-16T12:00:19;99874.81;;;36.30;46.71
9415;BME280;4746;35.664;139.738;2023-07-16T12:02:46;99873.31;;;36.28;46.91
9415;BME280;4746;35.664;139.738;2023-07-16T12:05:22;99870.63;;;36.28;47.22
9415;BME280;4746;35.664;139.738;2023-07-16T12:07:54;99870.09;;;36.16;47.24
9415;BME280;4746;35.664;139.738;2023-07-16T12:10:22;99862.38;;;36.13;47.35
9415;BME280;4746;35.664;139.738;2023-07-16T12:12:51;99864.75;;;36.16;47.30
9415;BME280;4746;35.664;139.738;2023-07-16T12:15:18;99868.56;;;36.14;47.48
9415;BME280;4746;35.664;139.738;2023-07-16T12:17:46;99868.97;;;36.02;47.90
9415;BME280;4746;35.664;139.738;2023-07-16T12:20:15;99877.47;;;35.97;47.74
9415;BME280;4746;35.664;139.738;2023-07-16T12:22:42;99882.88;;;35.88;47.69
9415;BME280;4746;35.664;139.738;2023-07-16T12:25:10;99875.81;;;35.79;48.16
9415;BME280;4746;35.664;139.738;2023-07-16T12:27:37;99877.13;;;35.75;48.12
9415;BME280;4746;35.664;139.738;2023-07-16T12:30:06;99872.69;;;35.66;48.62
9415;BME280;4746;35.664;139.738;2023-07-16T12:32:34;99873.84;;;35.63;48.63
9415;BME280;4746;35.664;139.738;2023-07-16T12:35:02;99868.84;;;35.60;49.06
9415;BME280;4746;35.664;139.738;2023-07-16T12:37:31;99873.81;;;35.55;48.76
9415;BME280;4746;35.664;139.738;2023-07-16T12:39:58;99869.22;;;35.48;49.29
9415;BME280;4746;35.664;139.738;2023-07-16T12:42:26;99869.50;;;35.45;49.13
9415;BME280;4746;35.664;139.738;2023-07-16T12:44:54;99870.81;;;35.41;49.18
9415;BME280;4746;35.664;139.738;2023-07-16T12:47:21;99880.09;;;35.37;49.46
9415;BME280;4746;35.664;139.738;2023-07-16T12:49:49;99889.41;;;35.33;49.69
9415;BME280;4746;35.664;139.738;2023-07-16T12:52:16;99894.03;;;35.31;49.76
9415;BME280;4746;35.664;139.738;2023-07-16T12:54:44;99895.03;;;35.30;49.23
9415;BME280;4746;35.664;139.738;2023-07-16T12:57:12;99899.69;;;35.28;49.54
9415;BME280;4746;35.664;139.738;2023-07-16T12:59:43;99908.06;;;35.33;49.77
9415;BME280;4746;35.664;139.738;2023-07-16T13:02:10;99920.69;;;35.31;50.10
9415;BME280;4746;35.664;139.738;2023-07-16T13:04:38;99940.50;;;35.29;49.87
9415;BME280;4746;35.664;139.738;2023-07-16T13:07:05;99936.31;;;35.26;50.31
9415;BME280;4746;35.664;139.738;2023-07-16T13:09:33;99945.28;;;35.25;50.10
9415;BME280;4746;35.664;139.738;2023-07-16T13:12:00;99935.63;;;35.24;49.82
9415;BME280;4746;35.664;139.738;2023-07-16T13:14:28;99930.88;;;35.18;50.50
9415;BME280;4746;35.664;139.738;2023-07-16T13:16:55;99927.56;;;35.16;50.02
9415;BME280;4746;35.664;139.738;2023-07-16T13:19:23;99929.22;;;35.17;50.53
9415;BME280;4746;35.664;139.738;2023-07-16T13:21:50;99926.56;;;35.17;50.39
9415;BME280;4746;35.664;139.738;2023-07-16T13:24:18;99923.75;;;35.19;50.70
9415;BME280;4746;35.664;139.738;2023-07-16T13:26:45;99918.25;;;35.20;50.80
9415;BME280;4746;35.664;139.738;2023-07-16T13:29:13;99924.94;;;35.24;50.27